This is the latest recevied weather packets stored in our database for station/object 9M4RBN-3. If no packets are shown the sender has not sent any weather packets the latest 10 day(s).
| Time | Temp. | Humidity | Pressure | Rain* | Wind** | Luminosity | Snow |
|---|---|---|---|---|---|---|---|
| 1787459634 | 27.22° C | 55% | 1018.3 hPa | - | - | - | - |
| 1787458734 | 27.78° C | 64% | 1018.4 hPa | - | - | - | - |
| 1787457834 | 27.78° C | 79% | 1018.5 hPa | - | - | - | - |
| 1787456934 | 27.78° C | 80% | 1018.5 hPa | - | - | - | - |
| 1787456036 | 27.78° C | 79% | 1018.4 hPa | - | - | - | - |
| 1787455233 | 27.22° C | 80% | 1018.7 hPa | - | - | - | - |
| 1787455136 | 27.22° C | 80% | 1018.7 hPa | - | - | - | - |
| 1787454271 | 27.22° C | 80% | 1018.8 hPa | - | - | - | - |
| 1787454236 | 27.22° C | 80% | 1018.8 hPa | - | - | - | - |
| 1787453336 | 27.22° C | 79% | 1018.8 hPa | - | - | - | - |
| 1787452435 | 26.67° C | 79% | 1018.7 hPa | - | - | - | - |
| 1787451535 | 26.67° C | 78% | 1018.7 hPa | - | - | - | - |
| 1787450635 | 26.67° C | 78% | 1018.9 hPa | - | - | - | - |
| 1787449735 | 26.67° C | 76% | 1018.8 hPa | - | - | - | - |
| 1787448835 | 26.11° C | 74% | 1018.9 hPa | - | - | - | - |
| 1787447935 | 26.11° C | 73% | 1018.7 hPa | - | - | - | - |
| 1787447035 | 25.56° C | 71% | 1018.7 hPa | - | - | - | - |
| 1787446135 | 25.56° C | 68% | 1018.5 hPa | - | - | - | - |
| 1787445235 | 25° C | 63% | 1018.3 hPa | - | - | - | - |
| 1787444335 | 24.44° C | 58% | 1018.1 hPa | - | - | - | - |
| 1787443435 | 23.89° C | 47% | 1017.8 hPa | - | - | - | - |
| 1787442535 | 23.89° C | 48% | 1017.5 hPa | - | - | - | - |
| 1787441635 | 24.44° C | 49% | 1017.1 hPa | - | - | - | - |
| 1787440925 | 25° C | 53% | 1016.8 hPa | - | - | - | - |
| 1787440735 | 25° C | 53% | 1016.8 hPa | - | - | - | - |
* Rain since midnight (hover to see other rain measurements)
** Current wind speed in m/s (hover to see current wind gust speed)